createdAt,value
2022-08-27T00:01:03.707Z,26.43
2022-08-27T00:03:37.140Z,26.63
2022-08-27T00:06:06.096Z,27.00
2022-08-27T00:08:35.184Z,26.23
2022-08-27T00:11:03.429Z,26.03
2022-08-27T00:13:31.678Z,24.93
2022-08-27T00:16:04.341Z,25.63
2022-08-27T00:18:32.900Z,27.43
2022-08-27T00:21:10.879Z,26.20
2022-08-27T00:23:39.840Z,27.57
2022-08-27T00:26:08.870Z,26.27
2022-08-27T00:28:37.508Z,26.20
2022-08-27T00:31:07.416Z,25.77
2022-08-27T00:33:39.181Z,25.90
2022-08-27T00:36:07.649Z,25.67
2022-08-27T00:38:38.736Z,26.87
2022-08-27T00:41:08.917Z,27.80
2022-08-27T00:43:46.924Z,27.87
2022-08-27T00:46:26.319Z,27.90
2022-08-27T00:48:57.900Z,26.57
2022-08-27T00:51:27.432Z,27.73
2022-08-27T00:53:57.797Z,26.80
2022-08-27T00:56:28.614Z,26.07
2022-08-27T00:58:57.973Z,26.13
2022-08-27T01:01:33.419Z,26.17
2022-08-27T01:04:06.567Z,25.63
2022-08-27T01:06:38.614Z,26.87
2022-08-27T01:09:13.154Z,26.77
2022-08-27T01:11:41.363Z,26.70
2022-08-27T01:14:10.073Z,27.13
2022-08-27T01:16:46.615Z,28.23
2022-08-27T01:19:23.766Z,28.57
2022-08-27T01:21:58.348Z,28.03
2022-08-27T01:24:41.780Z,27.50
2022-08-27T01:27:16.971Z,26.67
2022-08-27T01:29:46.819Z,28.63
2022-08-27T01:32:17.557Z,28.10
2022-08-27T01:34:47.345Z,28.73
2022-08-27T01:37:16.823Z,27.83
2022-08-27T01:39:56.938Z,29.40
2022-08-27T01:42:31.522Z,27.43
2022-08-27T01:45:01.817Z,28.50
2022-08-27T01:47:34.488Z,28.10
2022-08-27T01:50:04.146Z,28.73
2022-08-27T01:52:34.682Z,30.10
2022-08-27T01:55:05.580Z,27.90
2022-08-27T01:57:35.087Z,30.33
2022-08-27T02:00:03.547Z,29.30
2022-08-27T02:02:40.821Z,29.53
2022-08-27T02:05:10.006Z,29.17
2022-08-27T02:07:38.905Z,29.97
2022-08-27T02:10:11.538Z,31.23
2022-08-27T02:12:39.817Z,27.13
2022-08-27T02:15:09.634Z,28.97
2022-08-27T02:17:37.999Z,27.27
2022-08-27T02:20:07.212Z,28.23
2022-08-27T02:22:35.391Z,28.50
2022-08-27T02:25:03.956Z,29.43
2022-08-27T02:27:36.401Z,29.10
2022-08-27T02:30:09.215Z,29.87
2022-08-27T02:32:37.403Z,28.53
2022-08-27T02:35:06.492Z,29.47
2022-08-27T02:37:34.915Z,29.57
2022-08-27T02:40:07.201Z,30.17
2022-08-27T02:42:36.892Z,30.97
2022-08-27T02:45:06.404Z,28.83
2022-08-27T02:47:37.716Z,28.87
2022-08-27T02:50:07.697Z,27.43
2022-08-27T02:52:36.797Z,29.43
2022-08-27T02:55:07.752Z,29.40
2022-08-27T02:57:38.628Z,30.27
2022-08-27T03:00:09.365Z,29.00
2022-08-27T03:02:39.042Z,27.20
2022-08-27T03:05:08.889Z,29.07
2022-08-27T03:07:37.399Z,29.40
2022-08-27T03:10:06.972Z,28.40
2022-08-27T03:12:36.400Z,27.90
2022-08-27T03:15:11.581Z,25.73
2022-08-27T03:17:57.104Z,24.30
2022-08-27T03:20:26.298Z,25.77
2022-08-27T03:22:55.016Z,24.40
2022-08-27T03:25:23.874Z,23.00
2022-08-27T03:27:54.364Z,23.63
2022-08-27T03:30:24.507Z,24.33
2022-08-27T03:32:53.065Z,24.03
2022-08-27T03:35:22.073Z,23.93
2022-08-27T03:37:51.608Z,24.13
2022-08-27T03:40:21.129Z,23.70
2022-08-27T03:42:50.074Z,24.37
2022-08-27T03:45:18.413Z,23.50
2022-08-27T03:47:48.280Z,24.13
2022-08-27T03:50:19.812Z,24.67
2022-08-27T03:52:48.551Z,24.87
2022-08-27T03:55:17.146Z,26.67
2022-08-27T03:57:46.042Z,24.70
2022-08-27T04:00:14.675Z,25.13
2022-08-27T04:02:45.603Z,25.57
2022-08-27T04:05:15.812Z,27.00
2022-08-27T04:07:45.240Z,25.50
2022-08-27T04:10:14.391Z,24.43
2022-08-27T04:12:43.333Z,24.63
2022-08-27T04:15:13.530Z,25.43
2022-08-27T04:17:43.018Z,26.53
2022-08-27T04:20:34.550Z,25.00
2022-08-27T04:23:03.364Z,25.50
2022-08-27T04:25:33.980Z,29.23
2022-08-27T04:28:02.289Z,29.33
2022-08-27T04:30:31.430Z,29.10
2022-08-27T04:32:59.702Z,30.70
2022-08-27T04:35:29.325Z,29.80
2022-08-27T04:37:57.748Z,32.03
2022-08-27T04:40:46.253Z,32.97
2022-08-27T04:43:17.647Z,36.50
2022-08-27T04:45:55.837Z,35.10
2022-08-27T04:48:26.482Z,40.97
2022-08-27T04:51:01.761Z,41.10
2022-08-27T04:53:32.114Z,46.03
2022-08-27T04:56:07.611Z,44.83
2022-08-27T04:58:43.750Z,46.40
2022-08-27T05:01:18.500Z,44.60
2022-08-27T05:03:49.512Z,45.37
2022-08-27T05:06:19.988Z,43.73
2022-08-27T05:08:50.282Z,46.07
2022-08-27T05:11:23.187Z,41.60
2022-08-27T05:13:53.730Z,45.23
2022-08-27T05:16:27.386Z,46.03
2022-08-27T05:19:00.860Z,42.90
2022-08-27T05:21:35.623Z,42.73
2022-08-27T05:24:06.274Z,43.30
2022-08-27T05:26:39.366Z,41.43
2022-08-27T05:29:16.731Z,41.17
2022-08-27T05:31:47.913Z,42.27
2022-08-27T05:34:25.609Z,39.60
2022-08-27T05:36:56.049Z,39.60
2022-08-27T05:39:26.441Z,38.20
2022-08-27T05:41:58.493Z,38.30
2022-08-27T05:44:42.307Z,39.23
2022-08-27T05:47:11.130Z,39.40
2022-08-27T05:49:39.325Z,37.87
2022-08-27T05:52:12.499Z,37.70
2022-08-27T05:54:41.374Z,38.40
2022-08-27T05:57:20.765Z,37.43
2022-08-27T06:00:08.962Z,36.67
2022-08-27T06:02:44.314Z,35.17
2022-08-27T06:05:12.877Z,33.37
2022-08-27T06:07:42.577Z,32.30
2022-08-27T06:10:11.757Z,30.90
2022-08-27T06:12:40.119Z,29.07
2022-08-27T06:15:09.288Z,28.13
2022-08-27T06:17:37.479Z,30.33
2022-08-27T06:20:06.426Z,30.73
2022-08-27T06:22:34.934Z,31.10
2022-08-27T06:25:05.887Z,31.97
2022-08-27T06:27:34.383Z,32.77
2022-08-27T06:30:03.066Z,31.60
2022-08-27T06:32:31.451Z,32.60
2022-08-27T06:35:00.023Z,30.90
2022-08-27T06:37:29.373Z,33.10
2022-08-27T06:39:57.656Z,29.40
2022-08-27T06:42:27.857Z,31.23
2022-08-27T06:44:56.281Z,31.77
2022-08-27T06:47:24.544Z,30.23
2022-08-27T06:49:53.061Z,30.53
2022-08-27T06:52:32.597Z,30.87
2022-08-27T06:55:04.999Z,31.27
2022-08-27T06:57:34.636Z,32.77
2022-08-27T07:00:06.623Z,32.10
2022-08-27T07:02:38.883Z,30.03
2022-08-27T07:05:12.172Z,30.97
2022-08-27T07:07:46.667Z,27.13
2022-08-27T07:10:16.923Z,30.20
2022-08-27T07:12:46.402Z,28.90
2022-08-27T07:15:14.641Z,28.80
2022-08-27T07:17:44.807Z,31.87
2022-08-27T07:20:13.675Z,30.43
2022-08-27T07:22:42.633Z,32.23
2022-08-27T07:25:14.729Z,33.63
2022-08-27T07:27:43.345Z,33.20
2022-08-27T07:30:15.421Z,31.40
2022-08-27T07:32:44.196Z,32.23
2022-08-27T07:35:13.476Z,29.30
2022-08-27T07:37:43.133Z,30.37
2022-08-27T07:40:14.424Z,29.87
2022-08-27T07:43:01.962Z,30.43
2022-08-27T07:45:32.238Z,30.70
2022-08-27T07:48:00.447Z,32.37
2022-08-27T07:50:28.658Z,32.70
2022-08-27T07:52:59.179Z,32.73
2022-08-27T07:55:30.090Z,32.50
2022-08-27T07:57:58.292Z,30.50
2022-08-27T08:00:26.604Z,32.30
2022-08-27T08:02:56.361Z,33.17
2022-08-27T08:05:28.632Z,30.70
2022-08-27T08:07:57.162Z,31.73
2022-08-27T08:10:25.338Z,33.87
2022-08-27T08:12:53.519Z,32.50
2022-08-27T08:15:22.145Z,33.07
2022-08-27T08:17:50.401Z,33.53
2022-08-27T08:20:31.088Z,32.40
2022-08-27T08:23:10.501Z,31.87
2022-08-27T08:25:39.014Z,33.17
2022-08-27T08:28:07.207Z,31.03
2022-08-27T08:30:35.939Z,30.77
2022-08-27T08:33:04.379Z,31.50
2022-08-27T08:35:40.486Z,30.20
2022-08-27T08:38:09.551Z,31.63
2022-08-27T08:40:41.528Z,30.23
2022-08-27T08:43:20.636Z,30.20
2022-08-27T08:45:49.832Z,29.10
2022-08-27T08:48:20.606Z,27.53
2022-08-27T08:50:58.506Z,26.23
2022-08-27T08:53:40.528Z,27.50
2022-08-27T08:56:15.149Z,27.03
2022-08-27T08:58:48.837Z,26.10
2022-08-27T09:01:20.830Z,26.40
2022-08-27T09:03:56.810Z,26.40
2022-08-27T09:06:42.550Z,24.77
2022-08-27T09:09:21.248Z,26.00
2022-08-27T09:11:56.632Z,26.27
2022-08-27T09:14:33.229Z,26.30
2022-08-27T09:17:01.996Z,27.50
2022-08-27T09:19:30.664Z,26.87
2022-08-27T09:22:07.354Z,28.07
2022-08-27T09:24:52.671Z,23.30
2022-08-27T09:27:24.413Z,24.27
2022-08-27T09:29:55.222Z,25.20
2022-08-27T09:32:26.444Z,24.47
2022-08-27T09:34:59.317Z,24.30
2022-08-27T09:37:34.576Z,24.77
2022-08-27T09:40:13.301Z,23.80
2022-08-27T09:42:44.494Z,23.90
2022-08-27T09:45:20.718Z,23.97
2022-08-27T09:47:53.039Z,22.03
2022-08-27T09:50:24.462Z,23.13
2022-08-27T09:52:56.606Z,21.20
2022-08-27T09:55:30.856Z,19.97
2022-08-27T09:58:00.152Z,19.97
2022-08-27T10:00:37.504Z,19.80
2022-08-27T10:03:07.652Z,19.50
2022-08-27T10:05:39.530Z,20.97
2022-08-27T10:08:20.759Z,31.00
2022-08-27T10:10:55.606Z,31.47
2022-08-27T10:13:30.190Z,35.90
2022-08-27T10:16:24.788Z,35.83
2022-08-27T10:19:02.093Z,33.57
2022-08-27T10:21:39.451Z,30.53
2022-08-27T10:24:21.913Z,30.07
2022-08-27T10:27:00.523Z,27.23
2022-08-27T10:29:42.033Z,28.50
2022-08-27T10:32:26.048Z,27.07
2022-08-27T10:35:08.110Z,25.90
2022-08-27T10:37:45.529Z,26.37
2022-08-27T10:40:20.864Z,24.03
2022-08-27T10:43:00.712Z,23.17
2022-08-27T10:45:42.910Z,22.67
2022-08-27T10:48:24.544Z,22.83
2022-08-27T10:50:58.055Z,22.23
2022-08-27T10:53:37.172Z,23.27
2022-08-27T10:56:15.429Z,21.57
2022-08-27T10:59:02.386Z,21.87
2022-08-27T11:01:44.038Z,21.67
2022-08-27T11:04:16.767Z,21.70
2022-08-27T11:06:53.682Z,20.33
2022-08-27T11:09:24.252Z,22.30
2022-08-27T11:12:13.793Z,21.37
2022-08-27T11:14:49.129Z,22.20
2022-08-27T11:17:32.049Z,20.60
2022-08-27T11:20:07.968Z,21.00
2022-08-27T11:22:42.666Z,19.43
2022-08-27T11:25:23.001Z,19.17
2022-08-27T11:27:54.728Z,19.17
2022-08-27T11:30:29.157Z,18.53
2022-08-27T11:33:14.147Z,18.67
2022-08-27T11:35:56.908Z,18.50
2022-08-27T11:38:45.934Z,18.40
2022-08-27T11:41:44.670Z,17.93
2022-08-27T11:44:17.765Z,18.13
2022-08-27T11:46:50.892Z,17.37
2022-08-27T11:49:33.693Z,17.90
2022-08-27T11:52:07.331Z,18.30
2022-08-27T11:54:47.161Z,18.10
2022-08-27T11:57:17.839Z,17.27
2022-08-27T11:59:47.913Z,17.90
2022-08-27T12:02:26.126Z,17.90
2022-08-27T12:04:59.227Z,18.40
2022-08-27T12:07:36.330Z,17.10
2022-08-27T12:10:36.691Z,18.87
2022-08-27T12:13:15.601Z,19.57
2022-08-27T12:15:56.905Z,18.70
2022-08-27T12:18:58.401Z,19.03
2022-08-27T12:21:36.488Z,19.70
2022-08-27T12:24:40.284Z,20.17
2022-08-27T12:27:19.053Z,20.73
2022-08-27T12:29:50.864Z,20.53
2022-08-27T12:32:27.846Z,20.70
2022-08-27T12:35:03.251Z,20.37
2022-08-27T12:37:36.242Z,22.87
2022-08-27T12:40:19.929Z,22.93
2022-08-27T12:42:49.162Z,21.70
2022-08-27T12:45:26.195Z,20.60
2022-08-27T12:47:57.050Z,23.47
2022-08-27T12:50:28.897Z,23.57
2022-08-27T12:53:08.793Z,23.67
2022-08-27T12:55:54.130Z,23.10
2022-08-27T12:58:32.055Z,23.27
2022-08-27T13:01:16.721Z,23.43
2022-08-27T13:03:52.975Z,23.77
2022-08-27T13:06:28.667Z,23.77
2022-08-27T13:09:00.163Z,24.23
2022-08-27T13:11:31.545Z,20.83
2022-08-27T13:14:09.221Z,21.97
2022-08-27T13:16:39.935Z,22.67
2022-08-27T13:19:19.263Z,22.80
2022-08-27T13:21:50.084Z,23.67
2022-08-27T13:24:22.724Z,24.53
2022-08-27T13:26:54.858Z,23.30
2022-08-27T13:29:23.198Z,24.77
2022-08-27T13:31:52.038Z,25.20
2022-08-27T13:34:25.704Z,24.63
2022-08-27T13:36:59.583Z,24.13
2022-08-27T13:39:28.929Z,25.20
2022-08-27T13:42:00.233Z,27.27
2022-08-27T13:44:34.285Z,25.83
2022-08-27T13:47:05.373Z,26.63
2022-08-27T13:49:39.949Z,25.27
2022-08-27T13:52:18.167Z,24.67
2022-08-27T13:54:52.860Z,25.07
2022-08-27T13:57:25.727Z,26.47
2022-08-27T13:59:54.205Z,26.77
2022-08-27T14:02:27.380Z,25.57
2022-08-27T14:05:11.359Z,26.97
2022-08-27T14:07:44.588Z,23.40
2022-08-27T14:10:33.187Z,28.37
2022-08-27T14:13:05.618Z,28.57
2022-08-27T14:15:36.159Z,28.63
2022-08-27T14:18:09.582Z,29.07
2022-08-27T14:20:39.578Z,27.70
2022-08-27T14:23:07.926Z,30.20
2022-08-27T14:25:38.273Z,29.90
2022-08-27T14:28:06.640Z,30.20
2022-08-27T14:30:34.932Z,27.23
2022-08-27T14:33:04.350Z,24.97
2022-08-27T14:35:34.714Z,27.37
2022-08-27T14:38:09.791Z,26.33
2022-08-27T14:40:38.243Z,25.20
2022-08-27T14:43:09.705Z,26.00
2022-08-27T14:45:39.594Z,26.77
2022-08-27T14:48:18.223Z,25.70
2022-08-27T14:50:47.169Z,23.70
2022-08-27T14:53:19.862Z,24.90
2022-08-27T14:55:51.751Z,24.30
2022-08-27T14:58:20.659Z,23.47
2022-08-27T15:00:49.557Z,23.93
2022-08-27T15:03:19.913Z,23.77
2022-08-27T15:05:48.358Z,24.23
2022-08-27T15:08:19.052Z,24.57
2022-08-27T15:10:47.569Z,23.00
2022-08-27T15:13:15.667Z,24.83
2022-08-27T15:15:44.070Z,24.30
2022-08-27T15:18:12.439Z,23.97
2022-08-27T15:20:42.044Z,29.23
2022-08-27T15:23:15.104Z,30.80
2022-08-27T15:25:47.610Z,33.20
2022-08-27T15:28:15.855Z,33.37
2022-08-27T15:30:46.415Z,34.60
2022-08-27T15:33:15.080Z,33.20
2022-08-27T15:35:45.815Z,31.97
2022-08-27T15:38:14.152Z,32.60
2022-08-27T15:40:42.604Z,33.80
2022-08-27T15:43:14.292Z,31.57
2022-08-27T15:45:42.651Z,30.50
2022-08-27T15:48:12.153Z,29.00
2022-08-27T15:50:40.757Z,29.97
2022-08-27T15:53:10.153Z,27.83
2022-08-27T15:55:40.419Z,27.17
2022-08-27T15:58:10.097Z,25.40
2022-08-27T16:00:40.657Z,24.77
2022-08-27T16:03:13.157Z,25.63
2022-08-27T16:05:46.069Z,25.57
2022-08-27T16:08:15.428Z,26.10
2022-08-27T16:13:32.164Z,26.67
2022-08-27T16:16:02.813Z,24.53
2022-08-27T16:18:35.527Z,23.60
2022-08-27T16:21:06.235Z,26.10
2022-08-27T16:23:36.330Z,24.87
2022-08-27T16:26:05.198Z,27.80
2022-08-27T16:28:34.407Z,25.40
2022-08-27T16:31:05.442Z,24.27
2022-08-27T16:33:39.793Z,26.53
2022-08-27T16:36:10.985Z,27.43
2022-08-27T16:38:41.427Z,24.73
2022-08-27T16:41:10.385Z,25.97
2022-08-27T16:43:40.440Z,26.80
2022-08-27T16:46:10.232Z,27.30
2022-08-27T16:49:01.285Z,29.80
2022-08-27T16:51:34.920Z,26.07
2022-08-27T16:54:05.269Z,25.80
2022-08-27T16:56:37.770Z,27.50
2022-08-27T16:59:07.568Z,29.20
2022-08-27T17:01:37.801Z,28.47
2022-08-27T17:04:10.191Z,26.63
2022-08-27T17:06:44.965Z,25.57
2022-08-27T17:09:15.255Z,32.43
2022-08-27T17:11:46.760Z,32.90
2022-08-27T17:14:15.197Z,33.50
2022-08-27T17:16:45.103Z,35.53
2022-08-27T17:19:17.177Z,28.63
2022-08-27T17:21:46.595Z,29.60
2022-08-27T17:24:14.829Z,27.97
2022-08-27T17:26:43.127Z,29.73
2022-08-27T17:29:12.777Z,28.23
2022-08-27T17:31:44.860Z,28.17
2022-08-27T17:34:17.967Z,28.50
2022-08-27T17:36:46.884Z,29.23
2022-08-27T17:39:16.293Z,30.63
2022-08-27T17:41:46.370Z,29.50
2022-08-27T17:44:22.833Z,29.83
2022-08-27T17:46:56.463Z,32.00
2022-08-27T17:49:25.598Z,29.60
2022-08-27T17:51:59.947Z,31.17
2022-08-27T17:54:34.477Z,30.40
2022-08-27T17:57:04.582Z,32.53
2022-08-27T17:59:33.301Z,29.40
2022-08-27T18:02:04.179Z,31.40
2022-08-27T18:04:33.002Z,33.80
2022-08-27T18:07:02.345Z,33.93
2022-08-27T18:09:32.617Z,30.20
2022-08-27T18:12:00.767Z,33.03
2022-08-27T18:14:28.986Z,31.83
2022-08-27T18:16:58.143Z,31.40
2022-08-27T18:19:30.295Z,33.47
2022-08-27T18:21:58.448Z,38.73
2022-08-27T18:24:27.995Z,40.20
2022-08-27T18:26:56.645Z,42.00
2022-08-27T18:29:24.797Z,39.67
2022-08-27T18:31:53.190Z,40.37
2022-08-27T18:34:23.708Z,39.63
2022-08-27T18:36:54.122Z,40.17
2022-08-27T18:39:25.663Z,38.47
2022-08-27T18:41:56.043Z,39.43
2022-08-27T18:44:24.193Z,20.83
2022-08-27T18:46:53.660Z,18.03
2022-08-27T18:49:25.940Z,32.43
2022-08-27T18:51:59.559Z,32.23
2022-08-27T18:54:31.857Z,32.80
2022-08-27T18:57:00.371Z,34.07
2022-08-27T18:59:28.754Z,33.37
2022-08-27T19:01:58.003Z,30.30
2022-08-27T19:04:26.770Z,33.93
2022-08-27T19:06:56.637Z,30.07
2022-08-27T19:09:26.732Z,29.20
2022-08-27T19:11:59.881Z,29.40
2022-08-27T19:14:39.626Z,28.10
2022-08-27T19:17:13.994Z,28.50
2022-08-27T19:19:51.409Z,27.93
2022-08-27T19:22:21.802Z,29.40
2022-08-27T19:24:58.004Z,28.10
2022-08-27T19:27:34.724Z,29.30
2022-08-27T19:30:08.062Z,29.50
2022-08-27T19:32:36.493Z,28.73
2022-08-27T19:35:05.626Z,31.90
2022-08-27T19:37:40.207Z,30.00
2022-08-27T19:40:11.242Z,28.57
2022-08-27T19:42:42.858Z,29.07
2022-08-27T19:45:14.543Z,28.73
2022-08-27T19:47:55.453Z,28.90
2022-08-27T19:50:26.357Z,30.60
2022-08-27T19:52:58.988Z,28.40
2022-08-27T19:55:31.032Z,28.87
2022-08-27T19:57:59.546Z,27.67
2022-08-27T20:00:38.620Z,27.40
2022-08-27T20:03:10.333Z,26.50
2022-08-27T20:05:40.831Z,26.07
2022-08-27T20:08:19.244Z,27.60
2022-08-27T20:10:49.269Z,26.33
2022-08-27T20:13:18.353Z,24.10
2022-08-27T20:15:49.604Z,23.43
2022-08-27T20:18:37.162Z,28.53
2022-08-27T20:21:17.188Z,25.97
2022-08-27T20:24:12.481Z,28.73
2022-08-27T20:26:47.258Z,24.97
2022-08-27T20:29:22.468Z,23.50
2022-08-27T20:32:04.509Z,22.83
2022-08-27T20:34:34.627Z,25.10
2022-08-27T20:37:05.379Z,23.87
2022-08-27T20:39:40.281Z,22.60
2022-08-27T20:42:10.245Z,26.33
2022-08-27T20:44:39.586Z,24.17
2022-08-27T20:47:11.023Z,23.47
2022-08-27T20:49:41.653Z,24.57
2022-08-27T20:52:15.786Z,25.10
2022-08-27T20:54:49.340Z,28.50
2022-08-27T20:57:20.552Z,33.97
2022-08-27T21:00:07.892Z,40.77
2022-08-27T21:02:41.398Z,44.63
2022-08-27T21:05:22.158Z,42.90
2022-08-27T21:07:53.592Z,43.30
2022-08-27T21:10:23.829Z,44.93
2022-08-27T21:13:06.723Z,42.97
2022-08-27T21:15:40.891Z,42.67
2022-08-27T21:18:10.265Z,42.23
2022-08-27T21:20:43.274Z,40.57
2022-08-27T21:23:15.037Z,38.67
2022-08-27T21:25:46.348Z,35.60
2022-08-27T21:28:16.264Z,35.20
2022-08-27T21:30:45.202Z,28.73
2022-08-27T21:33:22.006Z,27.20
2022-08-27T21:35:51.346Z,26.00
2022-08-27T21:38:20.584Z,26.83
2022-08-27T21:40:53.986Z,26.57
2022-08-27T21:43:22.629Z,26.43
2022-08-27T21:45:55.298Z,26.93
2022-08-27T21:48:23.890Z,26.13
2022-08-27T21:50:53.639Z,26.03
2022-08-27T21:53:22.104Z,26.73
2022-08-27T21:55:54.558Z,24.57
2022-08-27T21:58:26.390Z,24.77
2022-08-27T22:00:55.281Z,23.80
2022-08-27T22:03:25.050Z,22.90
2022-08-27T22:05:53.841Z,21.90
2022-08-27T22:08:23.782Z,21.80
2022-08-27T22:10:57.876Z,20.97
2022-08-27T22:13:26.743Z,22.37
2022-08-27T22:15:55.196Z,21.40
2022-08-27T22:18:23.919Z,20.33
2022-08-27T22:20:53.364Z,21.47
2022-08-27T22:23:22.409Z,19.83
2022-08-27T22:25:50.630Z,20.23
2022-08-27T22:28:20.415Z,20.83
2022-08-27T22:30:48.639Z,20.23
2022-08-27T22:33:17.847Z,20.17
2022-08-27T22:35:46.087Z,20.83
2022-08-27T22:38:14.574Z,20.00
2022-08-27T22:40:43.211Z,20.40
2022-08-27T22:43:15.230Z,19.27
2022-08-27T22:45:45.316Z,21.77
2022-08-27T22:48:16.006Z,21.20
2022-08-27T22:50:44.243Z,21.27
2022-08-27T22:53:12.618Z,20.40
2022-08-27T22:55:40.888Z,22.20
2022-08-27T22:58:09.213Z,19.93
2022-08-27T23:00:39.497Z,21.33
2022-08-27T23:03:11.479Z,20.63
2022-08-27T23:05:41.921Z,20.70
2022-08-27T23:08:12.438Z,19.80
2022-08-27T23:10:41.816Z,20.27
2022-08-27T23:13:11.099Z,20.37
2022-08-27T23:15:39.576Z,21.53
2022-08-27T23:18:09.562Z,21.80
2022-08-27T23:20:38.700Z,21.90
2022-08-27T23:23:08.051Z,21.83
2022-08-27T23:25:53.543Z,22.00
2022-08-27T23:28:23.412Z,22.57
2022-08-27T23:30:52.317Z,23.20
2022-08-27T23:33:23.152Z,23.30
2022-08-27T23:35:51.929Z,21.47
2022-08-27T23:38:21.869Z,21.70
2022-08-27T23:40:50.908Z,22.17
2022-08-27T23:43:19.876Z,22.50
2022-08-27T23:45:50.220Z,22.93
2022-08-27T23:48:22.062Z,23.37
2022-08-27T23:50:50.554Z,25.20
2022-08-27T23:53:19.208Z,25.47
2022-08-27T23:55:47.521Z,25.67
2022-08-27T23:58:15.781Z,26.93
